Time;durP1;ratioP1;P1;durP2;ratioP2;P2;SDS_P1;SDS_P2;PMS_P1;PMS_P2;Temp;Humidity;BMP_temperature;BMP_pressure;BME280_temperature;BME280_humidity;BME280_pressure;Samples;Min_cycle;Max_cycle;Signal;HPM_P1;HPM_P2
2022/01/20 00:00:20;;;;;;;;;;;;;;;2.08;92.27;98069.94;1598907;88;24804;-83
2022/01/20 00:02:56;;;;;;;;;;;;;;;2.09;92.40;98066.47;1603549;89;20149;-83
2022/01/20 00:27:06;;;;;;;;;;;;;;;2.26;93.68;98037.36;1605889;89;24697;-83
2022/01/20 00:29:42;;;;;;;;;;;;;;;2.27;93.79;98042.91;1606065;88;22907;-82
2022/01/20 00:37:16;;;;;;;;;;;;;;;2.32;94.09;98030.20;1579929;89;20399;-84
2022/01/20 00:39:48;;;;;;;;;;;;;;;2.33;94.16;98033.17;1634842;87;24782;-83
2022/01/20 00:42:15;;;;;;;;;;;;;;;2.35;94.27;98027.47;1634527;87;21965;-83
2022/01/20 00:44:46;;;;;;;;;;;;;;;2.37;94.34;98025.67;1622410;88;26104;-83
2022/01/20 00:47:13;;;;;;;;;;;;;;;2.39;94.42;98018.70;1595386;89;24567;-83
2022/01/20 00:49:40;;;;;;;;;;;;;;;2.40;94.46;97998.89;1593500;88;20191;-83
2022/01/20 00:52:07;;;;;;;;;;;;;;;2.42;94.55;98009.97;1592857;88;24951;-83
2022/01/20 00:54:33;;;;;;;;;;;;;;;2.42;94.58;98014.69;1590836;88;22080;-82
2022/01/20 00:56:59;;;;;;;;;;;;;;;2.43;94.65;98011.65;1602729;88;21201;-83
2022/01/20 00:59:29;;;;;;;;;;;;;;;2.45;94.71;98012.44;1639511;85;25133;-82
2022/01/20 01:01:59;;;;;;;;;;;;;;;2.47;94.74;98008.86;1642450;85;20217;-83
2022/01/20 01:04:27;;;;;;;;;;;;;;;2.48;94.81;98004.09;1617670;85;24708;-83
2022/01/20 01:09:41;;;;;;;;;;;;;;;2.53;94.90;98006.46;1631755;87;26202;-83
2022/01/20 01:12:14;;;;;;;;;;;;;;;2.55;94.96;97994.78;1635980;86;24611;-83
2022/01/20 01:14:43;;;;;;;;;;;;;;;2.57;95.01;97991.20;1635898;87;20190;-83
2022/01/20 01:22:30;;;;;;;;;;;;;;;2.61;95.13;97963.06;1622268;87;26081;-84
2022/01/20 01:24:55;;;;;;;;;;;;;;;2.63;95.16;97963.81;1623643;86;25137;-83
2022/01/20 01:27:23;;;;;;;;;;;;;;;2.65;95.19;97936.63;1625582;87;20321;-83
2022/01/20 01:30:19;;;;;;;;;;;;;;;2.65;95.20;97940.05;1619669;87;24817;-83
2022/01/20 01:35:11;;;;;;;;;;;;;;;2.65;95.21;97932.30;1623869;87;26021;-83
2022/01/20 01:38:25;;;;;;;;;;;;;;;2.66;95.22;97907.31;1618412;85;24563;-84
2022/01/20 01:40:06;;;;;;;;;;;;;;;2.68;95.25;97908.05;1615059;88;20250;-83
2022/01/20 01:42:46;;;;;;;;;;;;;;;2.69;95.28;97913.16;1613425;88;24839;-83
2022/01/20 01:45:10;;;;;;;;;;;;;;;2.70;95.30;97910.13;1613824;86;22112;-83
2022/01/20 01:47:33;;;;;;;;;;;;;;;2.72;95.30;97894.11;1611471;88;26063;-81
2022/01/20 01:49:59;;;;;;;;;;;;;;;2.71;95.32;97884.23;1587428;90;24659;-83
2022/01/20 01:52:27;;;;;;;;;;;;;;;2.72;95.33;97888.94;1585189;88;20174;-83
2022/01/20 01:54:53;;;;;;;;;;;;;;;2.72;95.33;97882.48;1638116;86;20768;-83
2022/01/20 01:57:19;;;;;;;;;;;;;;;2.73;95.33;97884.97;1632166;85;22065;-83
2022/01/20 01:59:45;;;;;;;;;;;;;;;2.74;95.33;97875.02;1624825;86;26009;-83
2022/01/20 02:02:12;;;;;;;;;;;;;;;2.74;95.33;97880.19;1637926;85;24507;-83
2022/01/20 02:04:38;;;;;;;;;;;;;;;2.73;95.33;97874.64;1632475;86;20454;-83
2022/01/20 02:20:21;;;;;;;;;;;;;;;2.75;95.32;97861.66;1611826;88;25029;-83
2022/01/20 02:22:48;;;;;;;;;;;;;;;2.75;95.31;97863.78;1615654;88;21980;-83
2022/01/20 02:25:27;;;;;;;;;;;;;;;2.76;95.30;97862.05;1617215;88;26167;-83
2022/01/20 02:27:54;;;;;;;;;;;;;;;2.76;95.33;97865.92;1618876;87;24718;-83
2022/01/20 02:30:22;;;;;;;;;;;;;;;2.76;95.34;97869.80;1610440;88;20165;-82
2022/01/20 02:32:52;;;;;;;;;;;;;;;2.77;95.36;97877.48;1616391;88;25045;-82
2022/01/20 02:35:19;;;;;;;;;;;;;;;2.78;95.36;97872.67;1626639;86;22008;-83
2022/01/20 02:37:47;;;;;;;;;;;;;;;2.78;95.41;97861.05;1614992;88;26837;-82
2022/01/20 02:45:28;;;;;;;;;;;;;;;2.80;95.47;97852.78;1626873;86;26040;-82
2022/01/20 02:47:54;;;;;;;;;;;;;;;2.80;95.51;97857.94;1630245;86;21992;-82
2022/01/20 02:50:23;;;;;;;;;;;;;;;2.81;95.51;97854.45;1614603;86;26059;-82
2022/01/20 02:52:49;;;;;;;;;;;;;;;2.83;95.56;97851.80;1625532;86;24413;-82
2022/01/20 02:55:15;;;;;;;;;;;;;;;2.82;95.60;97857.88;1617255;87;20318;-83
2022/01/20 02:57:44;;;;;;;;;;;;;;;2.81;95.63;97848.00;1614821;87;25819;-83
2022/01/20 03:00:11;;;;;;;;;;;;;;;2.79;95.66;97845.09;1620275;86;22072;-83
2022/01/20 03:02:38;;;;;;;;;;;;;;;2.80;95.68;97849.35;1621335;86;26125;-82
2022/01/20 03:05:04;;;;;;;;;;;;;;;2.80;95.74;97854.06;1622294;86;24590;-83
2022/01/20 03:07:33;;;;;;;;;;;;;;;2.79;95.76;97853.68;1614206;86;20251;-83
2022/01/20 03:09:59;;;;;;;;;;;;;;;2.78;95.83;97855.88;1613073;86;24965;-84
2022/01/20 03:12:25;;;;;;;;;;;;;;;2.79;95.89;97854.13;1607525;87;21984;-83
2022/01/20 03:14:54;;;;;;;;;;;;;;;2.79;95.96;97855.42;1619442;86;22037;-83
2022/01/20 03:17:21;;;;;;;;;;;;;;;2.79;96.02;97836.05;1623990;87;24558;-83
2022/01/20 03:19:47;;;;;;;;;;;;;;;2.78;96.10;97854.58;1618318;87;20516;-83
2022/01/20 03:22:14;;;;;;;;;;;;;;;2.80;96.16;97841.60;1626696;86;24998;-83
2022/01/20 03:24:40;;;;;;;;;;;;;;;2.80;96.24;97850.64;1622681;87;21901;-83
2022/01/20 03:27:07;;;;;;;;;;;;;;;2.82;96.32;97850.97;1615511;86;26761;-83
2022/01/20 03:29:33;;;;;;;;;;;;;;;2.80;96.38;97847.61;1621664;87;24621;-82
2022/01/20 03:31:59;;;;;;;;;;;;;;;2.80;96.46;97839.86;1619846;86;20308;-83
2022/01/20 03:34:25;;;;;;;;;;;;;;;2.82;96.51;97840.63;1592556;87;24668;-83
2022/01/20 03:36:52;;;;;;;;;;;;;;;2.82;96.58;97837.20;1616893;86;21977;-83
2022/01/20 03:39:18;;;;;;;;;;;;;;;2.82;96.64;97839.34;1631222;86;25864;-83
2022/01/20 03:41:44;;;;;;;;;;;;;;;2.82;96.69;97826.42;1619740;87;24539;-83
2022/01/20 03:44:10;;;;;;;;;;;;;;;2.82;96.74;97831.59;1619256;87;20540;-83
2022/01/20 03:46:37;;;;;;;;;;;;;;;2.82;96.79;97832.88;1623381;88;24954;-83
2022/01/20 03:49:24;;;;;;;;;;;;;;;2.81;96.81;97818.28;1623479;88;22059;-83
2022/01/20 03:51:37;;;;;;;;;;;;;;;2.80;96.89;97822.22;1621012;88;26149;-83
2022/01/20 03:54:04;;;;;;;;;;;;;;;2.78;96.97;97826.16;1623276;88;24402;-83
2022/01/20 03:56:30;;;;;;;;;;;;;;;2.76;97.07;97824.13;1623625;88;20511;-83
2022/01/20 03:58:57;;;;;;;;;;;;;;;2.75;97.17;97827.62;1623735;88;25017;-83
2022/01/20 04:01:23;;;;;;;;;;;;;;;2.72;97.25;97817.90;1623461;88;22755;-83
2022/01/20 04:03:49;;;;;;;;;;;;;;;2.71;97.35;97815.77;1623268;88;26013;-83
2022/01/20 04:06:16;;;;;;;;;;;;;;;2.70;97.42;97808.92;1623492;88;24677;-82
2022/01/20 04:08:52;;;;;;;;;;;;;;;2.70;97.51;97799.05;1622036;88;20623;-82
2022/01/20 04:11:24;;;;;;;;;;;;;;;2.69;97.59;97794.33;1620623;87;25062;-83
2022/01/20 04:13:50;;;;;;;;;;;;;;;2.70;97.69;97795.16;1619902;87;22770;-83
2022/01/20 04:16:35;;;;;;;;;;;;;;;2.69;97.75;97793.03;1623631;88;26084;-83
2022/01/20 04:19:01;;;;;;;;;;;;;;;2.69;97.83;97787.87;1623395;88;24713;-83
2022/01/20 04:21:28;;;;;;;;;;;;;;;2.72;97.89;97786.90;1623721;88;20176;-83
2022/01/20 04:23:57;;;;;;;;;;;;;;;2.73;97.98;97793.71;1623418;88;24691;-83
2022/01/20 04:26:23;;;;;;;;;;;;;;;2.73;98.07;97785.96;1623721;88;21928;-83
2022/01/20 04:28:55;;;;;;;;;;;;;;;2.74;98.14;97787.64;1623567;88;26056;-83
2022/01/20 04:31:22;;;;;;;;;;;;;;;2.73;98.20;97777.76;1632014;87;24890;-83
2022/01/20 04:33:48;;;;;;;;;;;;;;;2.75;98.29;97768.65;1619423;87;20499;-83
2022/01/20 04:36:14;;;;;;;;;;;;;;;2.75;98.35;97771.23;1567125;88;24966;-83
2022/01/20 04:38:40;;;;;;;;;;;;;;;2.74;98.43;97761.35;1597137;87;22001;-83
2022/01/20 04:41:10;;;;;;;;;;;;;;;2.76;98.51;97766.45;1592361;89;26747;-83
2022/01/20 04:43:37;;;;;;;;;;;;;;;2.75;98.59;97745.40;1631723;88;23909;-83
2022/01/20 04:46:17;;;;;;;;;;;;;;;2.73;98.67;97752.37;1631130;88;20430;-83
2022/01/20 04:48:59;;;;;;;;;;;;;;;2.73;98.75;97756.25;1630342;87;24990;-83
2022/01/20 04:59:26;;;;;;;;;;;;;;;2.69;99.19;97746.98;1631650;88;20504;-82
2022/01/20 05:01:52;;;;;;;;;;;;;;;2.67;99.29;97741.92;1631827;87;25054;-83
2022/01/20 05:04:19;;;;;;;;;;;;;;;2.68;99.43;97733.69;1631600;87;21995;-83
2022/01/20 05:06:46;;;;;;;;;;;;;;;2.67;99.55;97731.59;1631881;87;26119;-82
2022/01/20 05:09:18;;;;;;;;;;;;;;;2.68;99.70;97722.91;1615218;87;24440;-82
2022/01/20 05:11:46;;;;;;;;;;;;;;;2.67;99.82;97719.97;1631898;86;20808;-83
2022/01/20 05:14:10;;;;;;;;;;;;;;;2.68;99.96;97724.65;1631048;87;24993;-82
2022/01/20 05:16:36;;;;;;;;;;;;;;;2.67;100.00;97726.42;1618417;87;20306;-82
2022/01/20 05:19:02;;;;;;;;;;;;;;;2.67;100.00;97737.21;1593428;89;26625;-82
2022/01/20 05:21:28;;;;;;;;;;;;;;;2.68;100.00;97744.02;1603247;88;20268;-82
2022/01/20 05:23:54;;;;;;;;;;;;;;;2.67;100.00;97738.05;1644315;85;20227;-82
2022/01/20 05:26:22;;;;;;;;;;;;;;;2.68;100.00;97739.69;1620893;86;25641;-82
2022/01/20 05:28:48;;;;;;;;;;;;;;;2.68;100.00;97747.44;1636427;86;22118;-82
2022/01/20 05:31:14;;;;;;;;;;;;;;;2.69;100.00;97734.08;1634611;87;26041;-82
2022/01/20 05:33:40;;;;;;;;;;;;;;;2.69;100.00;97742.66;1636530;87;24519;-82
2022/01/20 05:36:07;;;;;;;;;;;;;;;2.68;100.00;97724.20;1636269;86;20495;-82
2022/01/20 05:38:33;;;;;;;;;;;;;;;2.69;100.00;97731.03;1636203;86;24972;-82
2022/01/20 05:40:59;;;;;;;;;;;;;;;2.70;100.00;97726.71;1634519;87;21977;-83
2022/01/20 05:43:25;;;;;;;;;;;;;;;2.70;100.00;97727.55;1634465;87;26084;-82
2022/01/20 05:45:51;;;;;;;;;;;;;;;2.72;100.00;97742.98;1634633;87;24380;-82
2022/01/20 05:48:21;;;;;;;;;;;;;;;2.72;100.00;97734.78;1603650;89;20291;-83
2022/01/20 05:50:45;;;;;;;;;;;;;;;2.73;100.00;97745.47;1630756;86;25166;-83
2022/01/20 05:53:11;;;;;;;;;;;;;;;2.74;100.00;97756.19;1601318;88;20286;-82
2022/01/20 05:55:38;;;;;;;;;;;;;;;2.75;100.00;97742.36;1603594;88;25971;-82
2022/01/20 05:58:07;;;;;;;;;;;;;;;2.76;100.00;97758.70;1642473;85;24512;-82
2022/01/20 06:00:34;;;;;;;;;;;;;;;2.76;100.00;97738.88;1626270;87;20251;-82
2022/01/20 06:05:49;;;;;;;;;;;;;;;2.77;100.00;97739.71;1626633;87;22867;-82
2022/01/20 06:08:15;;;;;;;;;;;;;;;2.75;100.00;97746.23;1603840;88;26178;-82
2022/01/20 06:10:41;;;;;;;;;;;;;;;2.77;100.00;97742.30;1608156;88;24453;-82
2022/01/20 06:13:08;;;;;;;;;;;;;;;2.77;100.00;97741.84;1634449;87;20899;-82
2022/01/20 06:15:34;;;;;;;;;;;;;;;2.76;100.00;97739.33;1627971;88;25194;-82
2022/01/20 06:18:00;;;;;;;;;;;;;;;2.76;100.00;97729.83;1627957;88;21938;-82
2022/01/20 06:20:26;;;;;;;;;;;;;;;2.76;100.00;97732.87;1628189;88;26049;-82
2022/01/20 06:22:52;;;;;;;;;;;;;;;2.75;100.00;97721.70;1627931;87;24501;-82
2022/01/20 06:25:21;;;;;;;;;;;;;;;2.76;100.00;97716.91;1627642;88;20285;-82
2022/01/20 06:27:49;;;;;;;;;;;;;;;2.73;100.00;97714.92;1614343;87;20484;-82
2022/01/20 06:30:15;;;;;;;;;;;;;;;2.71;100.00;97713.73;1627830;88;21973;-82
2022/01/20 06:32:41;;;;;;;;;;;;;;;2.71;100.00;97716.31;1628132;88;26039;-82
2022/01/20 06:35:08;;;;;;;;;;;;;;;2.71;100.00;97712.89;1615465;87;24559;-82
2022/01/20 06:37:34;;;;;;;;;;;;;;;2.70;100.00;97701.72;1628065;88;20147;-82
2022/01/20 06:40:03;;;;;;;;;;;;;;;2.70;100.00;97700.42;1627852;87;24969;-82
2022/01/20 06:42:31;;;;;;;;;;;;;;;2.72;100.00;97695.19;1627539;88;22047;-82
2022/01/20 06:44:57;;;;;;;;;;;;;;;2.74;100.00;97698.06;1630487;87;25972;-83
2022/01/20 06:47:23;;;;;;;;;;;;;;;2.73;100.00;97702.84;1599424;88;24275;-82
2022/01/20 06:49:49;;;;;;;;;;;;;;;2.73;100.00;97680.88;1602827;88;20324;-82
2022/01/20 06:52:15;;;;;;;;;;;;;;;2.74;100.00;97681.27;1612088;88;24942;-83
2022/01/20 06:54:41;;;;;;;;;;;;;;;2.73;100.00;97664.55;1636046;87;22032;-83
2022/01/20 06:57:13;;;;;;;;;;;;;;;2.73;100.00;97676.17;1636680;87;26905;-82
2022/01/20 06:59:39;;;;;;;;;;;;;;;2.73;100.00;97683.92;1600949;88;24458;-83
2022/01/20 07:02:05;;;;;;;;;;;;;;;2.71;100.00;97684.02;1603020;88;20171;-83
2022/01/20 07:04:32;;;;;;;;;;;;;;;2.73;100.00;97696.84;1605398;88;24976;-83
2022/01/20 07:07:00;;;;;;;;;;;;;;;2.72;100.00;97690.02;1599517;88;22119;-83
2022/01/20 07:09:26;;;;;;;;;;;;;;;2.73;100.00;97684.76;1628214;88;26133;-83
2022/01/20 07:11:52;;;;;;;;;;;;;;;2.73;100.00;97695.09;1628009;87;24558;-83
2022/01/20 07:14:18;;;;;;;;;;;;;;;2.74;100.00;97693.34;1626918;88;20819;-83
2022/01/20 07:16:44;;;;;;;;;;;;;;;2.75;100.00;97699.73;1627043;88;25067;-83
2022/01/20 07:19:10;;;;;;;;;;;;;;;2.78;100.00;97698.28;1627987;88;21941;-83
2022/01/20 07:21:36;;;;;;;;;;;;;;;2.79;100.00;97701.24;1627873;87;26057;-83
2022/01/20 07:24:02;;;;;;;;;;;;;;;2.79;100.00;97699.95;1629089;86;24309;-83
2022/01/20 07:26:28;;;;;;;;;;;;;;;2.80;100.00;97697.75;1603667;88;20354;-83
2022/01/20 07:28:54;;;;;;;;;;;;;;;2.83;100.00;97698.07;1600041;88;25790;-83
2022/01/20 07:31:22;;;;;;;;;;;;;;;2.82;100.00;97688.19;1601131;88;21888;-83
2022/01/20 07:33:51;;;;;;;;;;;;;;;2.83;100.00;97684.70;1603372;88;26021;-83
2022/01/20 07:36:17;;;;;;;;;;;;;;;2.85;100.00;97688.47;1642002;85;24493;-83
2022/01/20 07:38:43;;;;;;;;;;;;;;;2.84;100.00;97694.09;1629317;86;20272;-83
2022/01/20 07:41:10;;;;;;;;;;;;;;;2.84;100.00;97701.00;1615760;86;24908;-82
2022/01/20 07:43:38;;;;;;;;;;;;;;;2.82;100.00;97704.14;1590285;90;21993;-82
2022/01/20 07:46:05;;;;;;;;;;;;;;;2.79;100.00;97709.45;1594109;89;26058;-83
2022/01/20 07:48:31;;;;;;;;;;;;;;;2.76;100.00;97718.66;1623384;86;24423;-83
2022/01/20 07:50:57;;;;;;;;;;;;;;;2.69;100.00;97725.88;1624235;87;20249;-83
2022/01/20 07:53:23;;;;;;;;;;;;;;;2.66;100.00;97720.88;1623843;86;25069;-83
2022/01/20 07:55:52;;;;;;;;;;;;;;;2.61;100.00;97729.30;1593984;90;22174;-83
2022/01/20 07:58:19;;;;;;;;;;;;;;;2.59;100.00;97733.70;1596750;88;26639;-83
2022/01/20 08:00:45;;;;;;;;;;;;;;;2.56;100.00;97738.19;1618221;86;24553;-83
2022/01/20 08:03:11;;;;;;;;;;;;;;;2.50;100.00;97747.07;1594348;89;20263;-84
2022/01/20 08:05:37;;;;;;;;;;;;;;;2.44;100.00;97747.36;1602294;87;25009;-84
2022/01/20 08:08:03;;;;;;;;;;;;;;;2.36;100.00;97742.55;1618107;88;21835;-84
2022/01/20 08:10:30;;;;;;;;;;;;;;;2.34;100.00;97753.88;1590570;88;25987;-83
2022/01/20 08:12:56;;;;;;;;;;;;;;;2.30;100.00;97742.01;1625119;86;24402;-83
2022/01/20 08:15:22;;;;;;;;;;;;;;;2.25;100.00;97726.74;1624969;88;20336;-84
2022/01/20 08:17:48;;;;;;;;;;;;;;;2.19;100.00;97740.39;1629243;87;25015;-83
2022/01/20 08:20:15;;;;;;;;;;;;;;;2.14;100.00;97751.39;1625014;86;21964;-84
2022/01/20 08:22:41;;;;;;;;;;;;;;;2.06;100.00;97735.83;1592930;89;26100;-83
2022/01/20 08:25:09;;;;;;;;;;;;;;;2.03;100.00;97748.86;1600437;88;24400;-83
2022/01/20 08:27:41;;;;;;;;;;;;;;;2.00;100.00;97745.15;1623984;86;20348;-83
2022/01/20 08:30:05;;;;;;;;;;;;;;;1.94;100.00;97745.43;1624390;86;25073;-83
2022/01/20 08:32:31;;;;;;;;;;;;;;;1.88;100.00;97752.16;1621183;86;22008;-83
2022/01/20 08:34:57;;;;;;;;;;;;;;;1.86;100.00;97743.64;1593991;88;26047;-83
2022/01/20 08:37:26;;;;;;;;;;;;;;;1.83;100.00;97755.86;1593057;89;25096;-83
2022/01/20 08:39:52;;;;;;;;;;;;;;;1.82;100.00;97758.05;1594706;88;20339;-84
2022/01/20 08:42:18;;;;;;;;;;;;;;;1.82;100.00;97758.88;1601847;88;25002;-83
2022/01/20 08:44:45;;;;;;;;;;;;;;;1.83;100.00;97746.83;1619984;87;21962;-83
2022/01/20 08:47:16;;;;;;;;;;;;;;;1.85;100.00;97745.02;1596001;89;26063;-83
2022/01/20 08:49:39;;;;;;;;;;;;;;;1.86;100.00;97729.45;1615030;88;24497;-83
2022/01/20 08:52:05;;;;;;;;;;;;;;;1.89;100.00;97706.56;1619411;86;20545;-83
2022/01/20 08:54:31;;;;;;;;;;;;;;;1.91;100.00;97696.53;1592212;89;25142;-83
2022/01/20 08:56:57;;;;;;;;;;;;;;;1.95;100.00;97676.16;1620085;86;21957;-83
2022/01/20 08:59:24;;;;;;;;;;;;;;;2.02;100.00;97674.09;1627032;87;25960;-83
2022/01/20 09:01:52;;;;;;;;;;;;;;;2.05;100.00;97676.09;1616294;87;23897;-84
2022/01/20 09:04:18;;;;;;;;;;;;;;;2.09;100.00;97686.64;1626641;87;20509;-83
2022/01/20 09:06:44;;;;;;;;;;;;;;;2.16;100.00;97699.25;1619632;88;25067;-83
2022/01/20 09:09:19;;;;;;;;;;;;;;;2.20;100.00;97705.94;1582552;88;21846;-83
2022/01/20 09:12:02;;;;;;;;;;;;;;;2.24;100.00;97708.28;1620138;88;26220;-83
2022/01/20 09:16:58;;;;;;;;;;;;;;;2.34;100.00;97704.83;1607662;87;20484;-83
2022/01/20 09:19:24;;;;;;;;;;;;;;;2.39;100.00;97702.86;1608149;88;25069;-83
2022/01/20 09:21:50;;;;;;;;;;;;;;;2.43;100.00;97700.05;1620902;87;21901;-83
2022/01/20 09:24:17;;;;;;;;;;;;;;;2.48;100.00;97688.20;1568532;90;22226;-83
2022/01/20 09:26:43;;;;;;;;;;;;;;;2.55;100.00;97687.44;1626979;85;20307;-83
2022/01/20 09:29:09;;;;;;;;;;;;;;;2.56;100.00;97692.55;1619178;88;20350;-83
2022/01/20 09:31:38;;;;;;;;;;;;;;;2.58;100.00;97686.82;1626077;86;25940;-83
2022/01/20 09:34:05;;;;;;;;;;;;;;;2.59;100.00;97684.63;1594429;88;22858;-82
2022/01/20 09:36:31;;;;;;;;;;;;;;;2.59;100.00;97683.34;1596495;88;26683;-83
2022/01/20 09:38:57;;;;;;;;;;;;;;;2.59;100.00;97694.95;1637914;85;24572;-83
2022/01/20 09:41:24;;;;;;;;;;;;;;;2.61;100.00;97699.60;1618423;85;20198;-83
2022/01/20 09:43:50;;;;;;;;;;;;;;;2.65;100.00;97689.94;1602219;88;25020;-83
2022/01/20 09:46:17;;;;;;;;;;;;;;;2.70;100.00;97672.46;1603038;88;22291;-83
2022/01/20 09:48:46;;;;;;;;;;;;;;;2.74;100.00;97673.97;1601136;88;26060;-83
2022/01/20 09:51:13;;;;;;;;;;;;;;;2.77;100.00;97672.55;1601835;88;24557;-83
2022/01/20 09:53:46;;;;;;;;;;;;;;;2.80;100.00;97670.63;1599390;89;20319;-83
2022/01/20 09:56:13;;;;;;;;;;;;;;;2.83;100.00;97663.19;1601975;89;25773;-83
2022/01/20 09:58:39;;;;;;;;;;;;;;;2.83;100.00;97647.23;1600180;88;22133;-83
2022/01/20 10:01:09;;;;;;;;;;;;;;;2.83;100.00;97652.86;1589624;89;26803;-83
2022/01/20 10:03:36;;;;;;;;;;;;;;;2.85;100.00;97659.59;1602439;88;25349;-83
2022/01/20 10:06:02;;;;;;;;;;;;;;;2.84;100.00;97652.75;1603979;87;20238;-83
2022/01/20 10:08:30;;;;;;;;;;;;;;;2.82;100.00;97651.18;1603038;88;25081;-83
2022/01/20 10:10:57;;;;;;;;;;;;;;;2.83;100.00;97650.27;1611179;87;21974;-83
2022/01/20 10:13:25;;;;;;;;;;;;;;;2.87;100.00;97645.31;1584349;90;26026;-83
2022/01/20 10:15:59;;;;;;;;;;;;;;;2.89;100.00;97628.80;1584197;90;24781;-83
2022/01/20 10:18:26;;;;;;;;;;;;;;;2.91;100.00;97624.40;1608698;87;20230;-83
2022/01/20 10:20:54;;;;;;;;;;;;;;;2.93;100.00;97620.45;1574325;90;24952;-83
2022/01/20 10:23:31;;;;;;;;;;;;;;;2.95;100.00;97592.77;1587842;89;21975;-83
2022/01/20 10:26:08;;;;;;;;;;;;;;;2.92;100.00;97600.23;1609137;88;26059;-85
2022/01/20 10:28:36;;;;;;;;;;;;;;;2.93;100.00;97615.28;1610448;88;24442;-83
2022/01/20 10:33:43;;;;;;;;;;;;;;;2.93;100.00;97605.78;1587063;89;25087;-83
2022/01/20 10:36:15;;;;;;;;;;;;;;;2.94;100.00;97604.04;1586838;87;23075;-83
2022/01/20 10:38:51;;;;;;;;;;;;;;;2.95;100.00;97594.89;1616662;87;26102;-83
2022/01/20 10:41:29;;;;;;;;;;;;;;;2.93;100.00;97595.45;1610854;87;24590;-83
2022/01/20 10:44:04;;;;;;;;;;;;;;;2.95;100.00;97592.30;1628783;85;20557;-83
2022/01/20 10:46:32;;;;;;;;;;;;;;;2.97;100.00;97566.39;1629463;86;25005;-83
2022/01/20 10:48:59;;;;;;;;;;;;;;;2.95;100.00;97565.17;1637338;86;22391;-83
2022/01/20 10:51:25;;;;;;;;;;;;;;;2.96;100.00;97554.37;1626816;86;26324;-83
2022/01/20 10:53:58;;;;;;;;;;;;;;;2.98;100.00;97555.59;1612552;87;24557;-83
2022/01/20 10:56:25;;;;;;;;;;;;;;;3.00;100.00;97534.39;1628913;86;20163;-83
2022/01/20 10:58:52;;;;;;;;;;;;;;;3.00;100.00;97546.03;1637531;86;25139;-83
2022/01/20 11:01:18;;;;;;;;;;;;;;;3.03;100.00;97532.92;1641104;86;22020;-83
2022/01/20 11:03:44;;;;;;;;;;;;;;;3.04;100.00;97548.81;1628168;86;25941;-83
2022/01/20 11:06:11;;;;;;;;;;;;;;;3.02;99.57;97541.59;1629892;85;24570;-83
2022/01/20 11:08:42;;;;;;;;;;;;;;;3.04;99.01;97532.02;1631426;86;20230;-83
2022/01/20 11:11:07;;;;;;;;;;;;;;;3.02;98.46;97515.74;1639924;86;24995;-84
2022/01/20 11:13:33;;;;;;;;;;;;;;;3.00;97.84;97539.08;1629196;86;22006;-83
2022/01/20 11:15:59;;;;;;;;;;;;;;;2.99;97.31;97521.93;1631349;87;26065;-83
2022/01/20 11:18:28;;;;;;;;;;;;;;;2.97;96.82;97522.91;1619903;87;20195;-83
2022/01/20 11:20:55;;;;;;;;;;;;;;;2.94;96.31;97512.30;1617382;87;20388;-83
2022/01/20 11:23:22;;;;;;;;;;;;;;;2.92;95.84;97514.13;1590045;90;25929;-83
2022/01/20 11:25:49;;;;;;;;;;;;;;;2.86;95.33;97532.08;1607079;88;22038;-83
2022/01/20 11:28:19;;;;;;;;;;;;;;;2.84;94.87;97572.66;1641347;86;26041;-83
2022/01/20 11:30:56;;;;;;;;;;;;;;;2.75;94.52;97685.53;1615766;85;23912;-83
2022/01/20 11:33:26;;;;;;;;;;;;;;;2.46;94.26;97679.23;1627923;86;20222;-83
2022/01/20 11:35:56;;;;;;;;;;;;;;;2.02;93.97;97665.90;1614865;88;25010;-83
2022/01/20 11:38:24;;;;;;;;;;;;;;;1.57;93.75;97653.91;1589854;89;22184;-83
2022/01/20 11:40:52;;;;;;;;;;;;;;;0.98;93.51;97666.46;1637250;85;26010;-83
2022/01/20 11:43:19;;;;;;;;;;;;;;;0.51;93.45;97675.36;1622215;88;24650;-82
2022/01/20 11:45:51;;;;;;;;;;;;;;;0.02;93.55;97688.11;1627191;88;20469;-83
2022/01/20 11:48:23;;;;;;;;;;;;;;;-0.37;93.87;97702.06;1626931;86;24421;-83
2022/01/20 11:51:03;;;;;;;;;;;;;;;-0.57;94.39;97685.67;1623502;86;22001;-83
2022/01/20 11:53:29;;;;;;;;;;;;;;;-0.69;95.08;97665.57;1620932;88;26086;-83
2022/01/20 11:55:58;;;;;;;;;;;;;;;-0.73;95.90;97670.44;1592935;89;24400;-83
2022/01/20 11:58:26;;;;;;;;;;;;;;;-0.72;96.73;97666.14;1599892;88;20342;-83
2022/01/20 12:01:05;;;;;;;;;;;;;;;-0.67;97.59;97674.07;1636314;87;25170;-83
2022/01/20 12:03:33;;;;;;;;;;;;;;;-0.63;98.44;97674.78;1634766;86;24050;-83
2022/01/20 12:06:14;;;;;;;;;;;;;;;-0.55;99.33;97677.47;1636169;87;26045;-83
2022/01/20 12:08:40;;;;;;;;;;;;;;;-0.46;100.00;97683.98;1622154;87;24638;-83
2022/01/20 12:11:08;;;;;;;;;;;;;;;-0.42;100.00;97676.09;1618828;88;20213;-82
2022/01/20 12:13:35;;;;;;;;;;;;;;;-0.42;100.00;97672.23;1622046;87;25939;-82
2022/01/20 12:16:02;;;;;;;;;;;;;;;-0.39;100.00;97680.29;1614574;86;22085;-82
2022/01/20 12:18:29;;;;;;;;;;;;;;;-0.39;100.00;97690.57;1635976;87;26010;-83
2022/01/20 12:20:55;;;;;;;;;;;;;;;-0.41;100.00;97702.63;1635739;87;24413;-83
2022/01/20 12:23:24;;;;;;;;;;;;;;;-0.40;100.00;97713.31;1621589;88;20637;-83
2022/01/20 12:25:50;;;;;;;;;;;;;;;-0.41;100.00;97710.34;1635852;87;25703;-83
2022/01/20 12:28:17;;;;;;;;;;;;;;;-0.40;100.00;97703.47;1636002;87;22010;-83
2022/01/20 12:30:50;;;;;;;;;;;;;;;-0.39;100.00;97710.30;1619707;87;25428;-83
2022/01/20 12:33:17;;;;;;;;;;;;;;;-0.38;100.00;97705.55;1593220;89;24525;-83
2022/01/20 12:35:50;;;;;;;;;;;;;;;-0.38;100.00;97711.98;1600115;88;20470;-82
2022/01/20 12:38:18;;;;;;;;;;;;;;;-0.45;100.00;97714.77;1620888;86;25037;-83
2022/01/20 12:40:50;;;;;;;;;;;;;;;-0.42;100.00;97716.38;1624744;88;22110;-82
2022/01/20 12:43:16;;;;;;;;;;;;;;;-0.44;100.00;97721.56;1612767;87;26889;-83
2022/01/20 12:45:56;;;;;;;;;;;;;;;-0.48;100.00;97722.58;1620085;87;24491;-82
2022/01/20 12:48:22;;;;;;;;;;;;;;;-0.47;100.00;97716.55;1609733;87;20257;-83
2022/01/20 12:50:56;;;;;;;;;;;;;;;-0.42;100.00;97730.06;1613533;87;24920;-83
2022/01/20 12:53:32;;;;;;;;;;;;;;;-0.39;100.00;97733.42;1617607;87;21988;-83
2022/01/20 12:55:58;;;;;;;;;;;;;;;-0.35;100.00;97748.67;1632908;87;26083;-83
2022/01/20 12:58:31;;;;;;;;;;;;;;;-0.32;100.00;97747.26;1634427;87;25285;-83
2022/01/20 13:00:58;;;;;;;;;;;;;;;-0.33;100.00;97748.62;1634794;86;20224;-83
2022/01/20 13:03:35;;;;;;;;;;;;;;;-0.34;100.00;97758.51;1634628;87;25000;-83
2022/01/20 13:06:01;;;;;;;;;;;;;;;-0.37;100.00;97763.75;1610161;87;22075;-82
2022/01/20 13:08:32;;;;;;;;;;;;;;;-0.35;100.00;97765.38;1584754;89;25993;-82
2022/01/20 13:11:07;;;;;;;;;;;;;;;-0.35;100.00;97767.95;1618779;88;24535;-83
2022/01/20 13:13:33;;;;;;;;;;;;;;;-0.35;100.00;97778.23;1609962;88;20254;-82
2022/01/20 13:16:01;;;;;;;;;;;;;;;-0.33;100.00;97784.16;1618602;88;24925;-83
2022/01/20 13:18:27;;;;;;;;;;;;;;;-0.30;100.00;97780.63;1604806;87;21965;-83
2022/01/20 13:20:59;;;;;;;;;;;;;;;-0.32;100.00;97786.26;1634224;87;26734;-83
2022/01/20 13:25:53;;;;;;;;;;;;;;;-0.31;100.00;97809.80;1634743;87;20225;-82
2022/01/20 13:28:19;;;;;;;;;;;;;;;-0.29;100.00;97810.14;1614212;87;24994;-82
2022/01/20 13:30:49;;;;;;;;;;;;;;;-0.30;100.00;97815.33;1634752;87;22159;-83
2022/01/20 13:33:23;;;;;;;;;;;;;;;-0.29;100.00;97811.88;1634643;87;26845;-82
2022/01/20 13:35:51;;;;;;;;;;;;;;;-0.31;100.00;97820.92;1634266;87;24392;-82
2022/01/20 13:38:17;;;;;;;;;;;;;;;-0.33;100.00;97812.44;1634355;87;20423;-82
2022/01/20 13:40:45;;;;;;;;;;;;;;;-0.35;100.00;97810.80;1610468;87;25002;-82
2022/01/20 13:45:59;;;;;;;;;;;;;;;-0.30;100.00;97825.61;1627066;86;26178;-82
2022/01/20 13:48:27;;;;;;;;;;;;;;;-0.35;100.00;97827.07;1627721;88;24373;-82
2022/01/20 13:50:57;;;;;;;;;;;;;;;-0.37;100.00;97823.70;1627076;88;20256;-82
2022/01/20 13:53:27;;;;;;;;;;;;;;;-0.39;100.00;97822.09;1627729;88;25082;-82
2022/01/20 13:55:56;;;;;;;;;;;;;;;-0.40;100.00;97822.98;1635697;85;22052;-82
2022/01/20 13:58:30;;;;;;;;;;;;;;;-0.44;100.00;97834.64;1637091;87;26886;-82
2022/01/20 14:00:57;;;;;;;;;;;;;;;-0.47;100.00;97837.34;1636508;87;24497;-82
2022/01/20 14:03:24;;;;;;;;;;;;;;;-0.49;100.00;97839.55;1636261;87;20226;-82
2022/01/20 14:05:53;;;;;;;;;;;;;;;-0.49;100.00;97847.27;1617116;87;24834;-82
2022/01/20 14:08:39;;;;;;;;;;;;;;;-0.46;100.00;97844.61;1589253;90;20514;-82